sensor_id;sensor_type;location;lat;lon;timestamp;P1;durP1;ratioP1;P2;durP2;ratioP2
32216;SDS011;67098;51.140;4.088;2023-02-24T00:00:06;24.58;;;4.78;;
32216;SDS011;67098;51.140;4.088;2023-02-24T00:02:54;26.67;;;5.45;;
32216;SDS011;67098;51.140;4.088;2023-02-24T00:05:19;22.15;;;4.40;;
32216;SDS011;67098;51.140;4.088;2023-02-24T00:07:47;24.40;;;5.28;;
32216;SDS011;67098;51.140;4.088;2023-02-24T00:10:13;21.20;;;5.00;;
32216;SDS011;67098;51.140;4.088;2023-02-24T00:12:43;22.92;;;5.50;;
32216;SDS011;67098;51.140;4.088;2023-02-24T00:15:12;26.20;;;4.65;;
32216;SDS011;67098;51.140;4.088;2023-02-24T00:17:41;24.70;;;4.47;;
32216;SDS011;67098;51.140;4.088;2023-02-24T00:20:11;23.10;;;5.20;;
32216;SDS011;67098;51.140;4.088;2023-02-24T00:22:40;22.63;;;4.63;;
32216;SDS011;67098;51.140;4.088;2023-02-24T00:25:06;20.02;;;4.80;;
32216;SDS011;67098;51.140;4.088;2023-02-24T00:27:32;19.00;;;4.25;;
32216;SDS011;67098;51.140;4.088;2023-02-24T00:29:58;16.58;;;4.72;;
32216;SDS011;67098;51.140;4.088;2023-02-24T00:32:25;18.52;;;4.93;;
32216;SDS011;67098;51.140;4.088;2023-02-24T00:34:51;25.33;;;4.32;;
32216;SDS011;67098;51.140;4.088;2023-02-24T00:37:17;20.90;;;4.10;;
32216;SDS011;67098;51.140;4.088;2023-02-24T00:39:48;20.00;;;4.30;;
32216;SDS011;67098;51.140;4.088;2023-02-24T00:42:14;14.73;;;4.07;;
32216;SDS011;67098;51.140;4.088;2023-02-24T00:44:44;18.50;;;4.65;;
32216;SDS011;67098;51.140;4.088;2023-02-24T00:47:11;25.57;;;5.20;;
32216;SDS011;67098;51.140;4.088;2023-02-24T00:49:38;20.92;;;5.28;;
32216;SDS011;67098;51.140;4.088;2023-02-24T00:52:10;25.90;;;5.57;;
32216;SDS011;67098;51.140;4.088;2023-02-24T00:57:04;27.20;;;5.38;;
32216;SDS011;67098;51.140;4.088;2023-02-24T00:59:32;25.85;;;6.97;;
32216;SDS011;67098;51.140;4.088;2023-02-24T01:01:59;23.48;;;7.80;;
32216;SDS011;67098;51.140;4.088;2023-02-24T01:04:24;26.38;;;6.85;;
32216;SDS011;67098;51.140;4.088;2023-02-24T01:06:53;30.02;;;8.05;;
32216;SDS011;67098;51.140;4.088;2023-02-24T01:09:24;31.13;;;7.50;;
32216;SDS011;67098;51.140;4.088;2023-02-24T01:11:52;31.98;;;6.57;;
32216;SDS011;67098;51.140;4.088;2023-02-24T01:14:36;23.45;;;6.45;;
32216;SDS011;67098;51.140;4.088;2023-02-24T01:17:04;28.73;;;6.60;;
32216;SDS011;67098;51.140;4.088;2023-02-24T01:19:31;28.45;;;6.18;;
32216;SDS011;67098;51.140;4.088;2023-02-24T01:22:02;32.90;;;6.63;;
32216;SDS011;67098;51.140;4.088;2023-02-24T01:24:31;22.83;;;6.97;;
32216;SDS011;67098;51.140;4.088;2023-02-24T01:27:01;26.50;;;7.60;;
32216;SDS011;67098;51.140;4.088;2023-02-24T01:29:28;30.55;;;7.15;;
32216;SDS011;67098;51.140;4.088;2023-02-24T01:31:53;25.63;;;7.00;;
32216;SDS011;67098;51.140;4.088;2023-02-24T01:34:26;21.63;;;6.72;;
32216;SDS011;67098;51.140;4.088;2023-02-24T01:36:52;21.33;;;6.13;;
32216;SDS011;67098;51.140;4.088;2023-02-24T01:39:19;21.25;;;6.30;;
32216;SDS011;67098;51.140;4.088;2023-02-24T01:41:45;22.50;;;6.03;;
32216;SDS011;67098;51.140;4.088;2023-02-24T01:46:42;25.23;;;5.82;;
32216;SDS011;67098;51.140;4.088;2023-02-24T01:51:38;21.02;;;6.10;;
32216;SDS011;67098;51.140;4.088;2023-02-24T01:54:11;23.20;;;5.80;;
32216;SDS011;67098;51.140;4.088;2023-02-24T01:56:39;26.63;;;5.70;;
32216;SDS011;67098;51.140;4.088;2023-02-24T01:59:07;21.73;;;5.57;;
32216;SDS011;67098;51.140;4.088;2023-02-24T02:01:34;23.65;;;5.35;;
32216;SDS011;67098;51.140;4.088;2023-02-24T02:04:08;24.23;;;6.18;;
32216;SDS011;67098;51.140;4.088;2023-02-24T02:06:44;20.38;;;6.55;;
32216;SDS011;67098;51.140;4.088;2023-02-24T02:09:12;25.85;;;7.40;;
32216;SDS011;67098;51.140;4.088;2023-02-24T02:11:39;19.83;;;5.50;;
32216;SDS011;67098;51.140;4.088;2023-02-24T02:14:06;16.17;;;4.88;;
32216;SDS011;67098;51.140;4.088;2023-02-24T02:16:39;21.98;;;5.25;;
32216;SDS011;67098;51.140;4.088;2023-02-24T02:35:36;14.60;;;4.10;;
32216;SDS011;67098;51.140;4.088;2023-02-24T02:38:34;16.27;;;3.80;;
32216;SDS011;67098;51.140;4.088;2023-02-24T02:41:22;15.40;;;3.95;;
32216;SDS011;67098;51.140;4.088;2023-02-24T02:46:37;24.90;;;5.93;;
32216;SDS011;67098;51.140;4.088;2023-02-24T02:49:11;16.05;;;4.00;;
32216;SDS011;67098;51.140;4.088;2023-02-24T02:51:47;19.00;;;3.60;;
32216;SDS011;67098;51.140;4.088;2023-02-24T02:54:25;24.42;;;4.28;;
32216;SDS011;67098;51.140;4.088;2023-02-24T02:56:58;20.08;;;3.85;;
32216;SDS011;67098;51.140;4.088;2023-02-24T02:59:30;17.20;;;4.05;;
32216;SDS011;67098;51.140;4.088;2023-02-24T03:01:59;21.15;;;4.22;;
32216;SDS011;67098;51.140;4.088;2023-02-24T03:04:39;21.98;;;4.57;;
32216;SDS011;67098;51.140;4.088;2023-02-24T03:07:08;30.15;;;5.32;;
32216;SDS011;67098;51.140;4.088;2023-02-24T03:09:39;26.70;;;4.47;;
32216;SDS011;67098;51.140;4.088;2023-02-24T03:12:09;25.73;;;4.00;;
32216;SDS011;67098;51.140;4.088;2023-02-24T03:14:39;14.82;;;3.63;;
32216;SDS011;67098;51.140;4.088;2023-02-24T03:17:14;19.30;;;3.28;;
32216;SDS011;67098;51.140;4.088;2023-02-24T03:19:45;24.92;;;4.35;;
32216;SDS011;67098;51.140;4.088;2023-02-24T03:22:19;23.88;;;4.15;;
32216;SDS011;67098;51.140;4.088;2023-02-24T03:24:49;16.13;;;3.05;;
32216;SDS011;67098;51.140;4.088;2023-02-24T03:30:21;19.20;;;3.67;;
32216;SDS011;67098;51.140;4.088;2023-02-24T03:35:21;18.52;;;3.78;;
32216;SDS011;67098;51.140;4.088;2023-02-24T03:37:51;23.13;;;4.55;;
32216;SDS011;67098;51.140;4.088;2023-02-24T03:40:20;21.77;;;4.45;;
32216;SDS011;67098;51.140;4.088;2023-02-24T03:42:47;25.40;;;3.78;;
32216;SDS011;67098;51.140;4.088;2023-02-24T03:45:17;19.92;;;3.58;;
32216;SDS011;67098;51.140;4.088;2023-02-24T03:47:43;18.73;;;3.75;;
32216;SDS011;67098;51.140;4.088;2023-02-24T03:50:13;16.20;;;3.75;;
32216;SDS011;67098;51.140;4.088;2023-02-24T04:01:15;12.40;;;3.28;;
32216;SDS011;67098;51.140;4.088;2023-02-24T04:04:07;18.08;;;3.72;;
32216;SDS011;67098;51.140;4.088;2023-02-24T04:16:00;12.10;;;3.28;;
32216;SDS011;67098;51.140;4.088;2023-02-24T04:20:56;12.73;;;3.33;;
32216;SDS011;67098;51.140;4.088;2023-02-24T04:23:25;12.85;;;2.78;;
32216;SDS011;67098;51.140;4.088;2023-02-24T04:25:55;17.30;;;3.25;;
32216;SDS011;67098;51.140;4.088;2023-02-24T04:28:21;21.17;;;3.35;;
32216;SDS011;67098;51.140;4.088;2023-02-24T04:30:49;15.75;;;3.20;;
32216;SDS011;67098;51.140;4.088;2023-02-24T04:33:16;14.65;;;2.72;;
32216;SDS011;67098;51.140;4.088;2023-02-24T04:35:46;12.43;;;2.90;;
32216;SDS011;67098;51.140;4.088;2023-02-24T04:38:17;12.55;;;3.03;;
32216;SDS011;67098;51.140;4.088;2023-02-24T04:40:44;14.38;;;2.95;;
32216;SDS011;67098;51.140;4.088;2023-02-24T04:43:09;15.38;;;3.53;;
32216;SDS011;67098;51.140;4.088;2023-02-24T04:45:37;14.70;;;2.90;;
32216;SDS011;67098;51.140;4.088;2023-02-24T04:48:06;20.48;;;3.72;;
32216;SDS011;67098;51.140;4.088;2023-02-24T04:50:40;11.35;;;2.88;;
32216;SDS011;67098;51.140;4.088;2023-02-24T04:53:11;18.48;;;3.65;;
32216;SDS011;67098;51.140;4.088;2023-02-24T04:55:43;14.57;;;3.60;;
32216;SDS011;67098;51.140;4.088;2023-02-24T04:58:14;11.95;;;2.95;;
32216;SDS011;67098;51.140;4.088;2023-02-24T05:00:43;17.58;;;3.17;;
32216;SDS011;67098;51.140;4.088;2023-02-24T05:03:12;16.00;;;3.50;;
32216;SDS011;67098;51.140;4.088;2023-02-24T05:05:38;17.17;;;3.08;;
32216;SDS011;67098;51.140;4.088;2023-02-24T05:08:08;15.07;;;3.60;;
32216;SDS011;67098;51.140;4.088;2023-02-24T05:10:39;16.13;;;3.20;;
32216;SDS011;67098;51.140;4.088;2023-02-24T05:13:10;15.32;;;4.22;;
32216;SDS011;67098;51.140;4.088;2023-02-24T05:15:39;9.73;;;2.97;;
32216;SDS011;67098;51.140;4.088;2023-02-24T05:18:08;10.32;;;2.75;;
32216;SDS011;67098;51.140;4.088;2023-02-24T05:20:38;13.35;;;3.55;;
32216;SDS011;67098;51.140;4.088;2023-02-24T05:23:25;19.08;;;3.60;;
32216;SDS011;67098;51.140;4.088;2023-02-24T05:25:56;16.30;;;3.30;;
32216;SDS011;67098;51.140;4.088;2023-02-24T05:28:22;18.65;;;3.40;;
32216;SDS011;67098;51.140;4.088;2023-02-24T05:30:49;11.52;;;3.10;;
32216;SDS011;67098;51.140;4.088;2023-02-24T05:33:16;20.10;;;3.30;;
32216;SDS011;67098;51.140;4.088;2023-02-24T05:35:46;19.88;;;3.22;;
32216;SDS011;67098;51.140;4.088;2023-02-24T05:38:12;15.15;;;3.20;;
32216;SDS011;67098;51.140;4.088;2023-02-24T05:40:38;13.02;;;3.72;;
32216;SDS011;67098;51.140;4.088;2023-02-24T05:43:10;15.98;;;2.88;;
32216;SDS011;67098;51.140;4.088;2023-02-24T05:45:42;15.43;;;3.05;;
32216;SDS011;67098;51.140;4.088;2023-02-24T05:48:09;17.23;;;3.58;;
32216;SDS011;67098;51.140;4.088;2023-02-24T05:50:38;14.80;;;3.03;;
32216;SDS011;67098;51.140;4.088;2023-02-24T05:53:05;12.93;;;3.15;;
32216;SDS011;67098;51.140;4.088;2023-02-24T05:55:33;9.80;;;2.60;;
32216;SDS011;67098;51.140;4.088;2023-02-24T05:58:00;14.85;;;3.42;;
32216;SDS011;67098;51.140;4.088;2023-02-24T06:00:31;11.57;;;3.45;;
32216;SDS011;67098;51.140;4.088;2023-02-24T06:02:57;15.10;;;2.85;;
32216;SDS011;67098;51.140;4.088;2023-02-24T06:05:32;19.75;;;3.42;;
32216;SDS011;67098;51.140;4.088;2023-02-24T06:07:59;14.77;;;2.70;;
32216;SDS011;67098;51.140;4.088;2023-02-24T06:10:29;15.68;;;2.88;;
32216;SDS011;67098;51.140;4.088;2023-02-24T06:12:57;12.50;;;2.72;;
32216;SDS011;67098;51.140;4.088;2023-02-24T06:15:25;11.07;;;2.45;;
32216;SDS011;67098;51.140;4.088;2023-02-24T06:17:51;17.13;;;3.10;;
32216;SDS011;67098;51.140;4.088;2023-02-24T06:20:21;20.17;;;2.95;;
32216;SDS011;67098;51.140;4.088;2023-02-24T06:22:48;18.00;;;4.05;;
32216;SDS011;67098;51.140;4.088;2023-02-24T06:25:18;18.37;;;2.50;;
32216;SDS011;67098;51.140;4.088;2023-02-24T06:27:49;16.38;;;2.88;;
32216;SDS011;67098;51.140;4.088;2023-02-24T06:30:22;12.10;;;2.70;;
32216;SDS011;67098;51.140;4.088;2023-02-24T06:32:49;15.38;;;2.85;;
32216;SDS011;67098;51.140;4.088;2023-02-24T06:35:15;15.10;;;2.70;;
32216;SDS011;67098;51.140;4.088;2023-02-24T06:37:42;15.35;;;2.72;;
32216;SDS011;67098;51.140;4.088;2023-02-24T06:40:08;14.93;;;2.72;;
32216;SDS011;67098;51.140;4.088;2023-02-24T06:42:43;13.07;;;2.40;;
32216;SDS011;67098;51.140;4.088;2023-02-24T06:45:10;16.17;;;3.25;;
32216;SDS011;67098;51.140;4.088;2023-02-24T06:47:36;9.88;;;2.53;;
32216;SDS011;67098;51.140;4.088;2023-02-24T06:50:02;9.82;;;2.38;;
32216;SDS011;67098;51.140;4.088;2023-02-24T06:52:31;17.90;;;3.10;;
32216;SDS011;67098;51.140;4.088;2023-02-24T06:54:57;16.63;;;2.85;;
32216;SDS011;67098;51.140;4.088;2023-02-24T06:57:22;14.57;;;3.13;;
32216;SDS011;67098;51.140;4.088;2023-02-24T06:59:48;17.15;;;2.40;;
32216;SDS011;67098;51.140;4.088;2023-02-24T07:02:14;23.23;;;3.22;;
32216;SDS011;67098;51.140;4.088;2023-02-24T07:04:41;14.38;;;2.70;;
32216;SDS011;67098;51.140;4.088;2023-02-24T07:07:07;12.93;;;3.15;;
32216;SDS011;67098;51.140;4.088;2023-02-24T07:09:34;24.27;;;4.43;;
32216;SDS011;67098;51.140;4.088;2023-02-24T07:12:01;23.00;;;4.43;;
32216;SDS011;67098;51.140;4.088;2023-02-24T07:14:28;21.33;;;3.58;;
32216;SDS011;67098;51.140;4.088;2023-02-24T07:16:55;19.85;;;3.97;;
32216;SDS011;67098;51.140;4.088;2023-02-24T07:19:26;17.25;;;4.20;;
32216;SDS011;67098;51.140;4.088;2023-02-24T07:21:55;14.95;;;4.05;;
32216;SDS011;67098;51.140;4.088;2023-02-24T07:24:24;23.27;;;3.72;;
32216;SDS011;67098;51.140;4.088;2023-02-24T07:27:00;17.02;;;3.50;;
32216;SDS011;67098;51.140;4.088;2023-02-24T07:31:54;15.70;;;4.97;;
32216;SDS011;67098;51.140;4.088;2023-02-24T07:34:27;19.92;;;5.80;;
32216;SDS011;67098;51.140;4.088;2023-02-24T07:36:53;14.75;;;4.75;;
32216;SDS011;67098;51.140;4.088;2023-02-24T07:39:20;20.13;;;4.40;;
32216;SDS011;67098;51.140;4.088;2023-02-24T07:41:47;23.75;;;4.65;;
32216;SDS011;67098;51.140;4.088;2023-02-24T07:44:19;17.45;;;4.13;;
32216;SDS011;67098;51.140;4.088;2023-02-24T07:46:47;13.18;;;3.85;;
32216;SDS011;67098;51.140;4.088;2023-02-24T07:49:15;25.58;;;4.18;;
32216;SDS011;67098;51.140;4.088;2023-02-24T07:51:43;16.45;;;3.80;;
32216;SDS011;67098;51.140;4.088;2023-02-24T07:54:11;20.05;;;4.90;;
32216;SDS011;67098;51.140;4.088;2023-02-24T07:56:39;27.50;;;4.28;;
32216;SDS011;67098;51.140;4.088;2023-02-24T07:59:20;17.90;;;3.45;;
32216;SDS011;67098;51.140;4.088;2023-02-24T08:01:50;23.83;;;4.23;;
32216;SDS011;67098;51.140;4.088;2023-02-24T08:04:20;23.92;;;4.30;;
32216;SDS011;67098;51.140;4.088;2023-02-24T08:06:50;21.15;;;3.72;;
32216;SDS011;67098;51.140;4.088;2023-02-24T08:09:21;20.38;;;4.53;;
32216;SDS011;67098;51.140;4.088;2023-02-24T08:12:13;23.20;;;3.80;;
32216;SDS011;67098;51.140;4.088;2023-02-24T08:14:45;19.75;;;4.68;;
32216;SDS011;67098;51.140;4.088;2023-02-24T08:17:15;24.73;;;4.28;;
32216;SDS011;67098;51.140;4.088;2023-02-24T08:19:48;19.40;;;3.90;;
32216;SDS011;67098;51.140;4.088;2023-02-24T08:22:32;17.63;;;3.30;;
32216;SDS011;67098;51.140;4.088;2023-02-24T08:25:01;16.70;;;3.33;;
32216;SDS011;67098;51.140;4.088;2023-02-24T08:27:30;24.75;;;4.00;;
32216;SDS011;67098;51.140;4.088;2023-02-24T08:29:57;18.98;;;3.50;;
32216;SDS011;67098;51.140;4.088;2023-02-24T08:35:02;17.60;;;4.30;;
32216;SDS011;67098;51.140;4.088;2023-02-24T08:37:31;20.60;;;3.28;;
32216;SDS011;67098;51.140;4.088;2023-02-24T08:40:10;23.90;;;3.83;;
32216;SDS011;67098;51.140;4.088;2023-02-24T08:43:00;18.92;;;3.83;;
32216;SDS011;67098;51.140;4.088;2023-02-24T08:46:23;22.05;;;3.58;;
32216;SDS011;67098;51.140;4.088;2023-02-24T08:48:49;19.70;;;4.50;;
32216;SDS011;67098;51.140;4.088;2023-02-24T08:51:30;18.17;;;3.35;;
32216;SDS011;67098;51.140;4.088;2023-02-24T08:54:01;24.02;;;3.65;;
32216;SDS011;67098;51.140;4.088;2023-02-24T08:56:39;12.75;;;3.17;;
32216;SDS011;67098;51.140;4.088;2023-02-24T08:59:13;19.75;;;4.22;;
32216;SDS011;67098;51.140;4.088;2023-02-24T09:01:59;24.27;;;4.88;;
32216;SDS011;67098;51.140;4.088;2023-02-24T09:04:46;24.83;;;3.83;;
32216;SDS011;67098;51.140;4.088;2023-02-24T09:07:17;17.58;;;3.42;;
32216;SDS011;67098;51.140;4.088;2023-02-24T09:09:53;16.03;;;3.20;;
32216;SDS011;67098;51.140;4.088;2023-02-24T09:12:21;17.52;;;3.72;;
32216;SDS011;67098;51.140;4.088;2023-02-24T09:15:00;26.05;;;3.63;;
32216;SDS011;67098;51.140;4.088;2023-02-24T09:17:29;19.95;;;3.42;;
32216;SDS011;67098;51.140;4.088;2023-02-24T09:20:09;18.23;;;4.07;;
32216;SDS011;67098;51.140;4.088;2023-02-24T09:22:54;18.83;;;3.53;;
32216;SDS011;67098;51.140;4.088;2023-02-24T09:25:28;19.85;;;3.63;;
32216;SDS011;67098;51.140;4.088;2023-02-24T09:28:46;16.10;;;3.58;;
32216;SDS011;67098;51.140;4.088;2023-02-24T09:31:19;27.52;;;3.95;;
32216;SDS011;67098;51.140;4.088;2023-02-24T09:33:48;13.07;;;3.17;;
32216;SDS011;67098;51.140;4.088;2023-02-24T09:36:17;27.45;;;3.83;;
32216;SDS011;67098;51.140;4.088;2023-02-24T09:38:45;17.85;;;3.25;;
32216;SDS011;67098;51.140;4.088;2023-02-24T09:41:41;18.38;;;3.13;;
32216;SDS011;67098;51.140;4.088;2023-02-24T09:47:08;13.05;;;3.20;;
32216;SDS011;67098;51.140;4.088;2023-02-24T09:50:28;14.25;;;2.97;;
32216;SDS011;67098;51.140;4.088;2023-02-24T09:53:10;13.20;;;3.10;;
32216;SDS011;67098;51.140;4.088;2023-02-24T09:58:41;16.67;;;3.47;;
32216;SDS011;67098;51.140;4.088;2023-02-24T10:10:24;17.05;;;3.50;;
32216;SDS011;67098;51.140;4.088;2023-02-24T10:13:12;18.60;;;2.67;;
32216;SDS011;67098;51.140;4.088;2023-02-24T10:15:54;23.48;;;3.58;;
32216;SDS011;67098;51.140;4.088;2023-02-24T10:21:40;20.77;;;4.97;;
32216;SDS011;67098;51.140;4.088;2023-02-24T10:34:57;14.52;;;3.70;;
32216;SDS011;67098;51.140;4.088;2023-02-24T10:37:24;22.63;;;3.63;;
32216;SDS011;67098;51.140;4.088;2023-02-24T10:39:56;18.13;;;3.80;;
32216;SDS011;67098;51.140;4.088;2023-02-24T10:42:27;14.13;;;3.63;;
32216;SDS011;67098;51.140;4.088;2023-02-24T10:45:36;18.52;;;3.85;;
32216;SDS011;67098;51.140;4.088;2023-02-24T10:47:51;23.67;;;4.28;;
32216;SDS011;67098;51.140;4.088;2023-02-24T10:50:26;20.10;;;3.72;;
32216;SDS011;67098;51.140;4.088;2023-02-24T10:53:00;27.20;;;4.65;;
32216;SDS011;67098;51.140;4.088;2023-02-24T10:58:13;22.25;;;4.30;;
32216;SDS011;67098;51.140;4.088;2023-02-24T11:03:49;21.25;;;3.72;;
32216;SDS011;67098;51.140;4.088;2023-02-24T11:06:29;20.25;;;4.40;;
32216;SDS011;67098;51.140;4.088;2023-02-24T11:09:05;19.83;;;3.90;;
32216;SDS011;67098;51.140;4.088;2023-02-24T11:14:56;25.48;;;4.13;;
32216;SDS011;67098;51.140;4.088;2023-02-24T11:17:52;20.98;;;4.40;;
32216;SDS011;67098;51.140;4.088;2023-02-24T11:23:12;13.77;;;3.35;;
32216;SDS011;67098;51.140;4.088;2023-02-24T11:25:53;20.98;;;3.85;;
32216;SDS011;67098;51.140;4.088;2023-02-24T11:33:39;22.75;;;4.00;;
32216;SDS011;67098;51.140;4.088;2023-02-24T11:41:24;21.00;;;4.00;;
32216;SDS011;67098;51.140;4.088;2023-02-24T11:44:06;17.15;;;4.18;;
32216;SDS011;67098;51.140;4.088;2023-02-24T11:46:38;13.70;;;3.75;;
32216;SDS011;67098;51.140;4.088;2023-02-24T11:49:54;12.68;;;3.88;;
32216;SDS011;67098;51.140;4.088;2023-02-24T11:52:02;13.77;;;3.72;;
32216;SDS011;67098;51.140;4.088;2023-02-24T11:54:42;25.98;;;5.50;;
32216;SDS011;67098;51.140;4.088;2023-02-24T11:57:19;19.83;;;4.22;;
32216;SDS011;67098;51.140;4.088;2023-02-24T11:59:51;20.52;;;4.57;;
32216;SDS011;67098;51.140;4.088;2023-02-24T12:07:48;19.70;;;5.68;;
32216;SDS011;67098;51.140;4.088;2023-02-24T12:15:32;22.83;;;5.05;;
32216;SDS011;67098;51.140;4.088;2023-02-24T12:18:16;19.90;;;5.15;;
32216;SDS011;67098;51.140;4.088;2023-02-24T12:21:36;19.27;;;5.55;;
32216;SDS011;67098;51.140;4.088;2023-02-24T12:23:44;28.27;;;6.68;;
32216;SDS011;67098;51.140;4.088;2023-02-24T12:26:15;24.58;;;7.32;;
32216;SDS011;67098;51.140;4.088;2023-02-24T12:32:00;23.08;;;8.57;;
32216;SDS011;67098;51.140;4.088;2023-02-24T12:34:39;18.45;;;7.10;;
32216;SDS011;67098;51.140;4.088;2023-02-24T12:40:37;19.30;;;7.88;;
32216;SDS011;67098;51.140;4.088;2023-02-24T12:45:58;30.50;;;11.45;;
32216;SDS011;67098;51.140;4.088;2023-02-24T12:54:39;23.73;;;9.70;;
32216;SDS011;67098;51.140;4.088;2023-02-24T12:57:37;26.08;;;9.98;;
32216;SDS011;67098;51.140;4.088;2023-02-24T13:05:31;21.42;;;6.35;;
32216;SDS011;67098;51.140;4.088;2023-02-24T13:13:26;16.00;;;5.68;;
32216;SDS011;67098;51.140;4.088;2023-02-24T13:16:04;17.35;;;6.00;;
32216;SDS011;67098;51.140;4.088;2023-02-24T13:18:30;16.88;;;6.43;;
32216;SDS011;67098;51.140;4.088;2023-02-24T13:21:04;23.05;;;6.80;;
32216;SDS011;67098;51.140;4.088;2023-02-24T13:23:40;18.63;;;7.20;;
32216;SDS011;67098;51.140;4.088;2023-02-24T13:26:07;17.77;;;7.32;;
32216;SDS011;67098;51.140;4.088;2023-02-24T13:28:35;19.33;;;8.23;;
32216;SDS011;67098;51.140;4.088;2023-02-24T13:31:09;26.17;;;8.10;;
32216;SDS011;67098;51.140;4.088;2023-02-24T13:33:40;23.05;;;8.23;;
32216;SDS011;67098;51.140;4.088;2023-02-24T13:38:39;22.53;;;9.47;;
32216;SDS011;67098;51.140;4.088;2023-02-24T13:41:07;23.67;;;8.82;;
32216;SDS011;67098;51.140;4.088;2023-02-24T13:46:22;21.97;;;10.40;;
32216;SDS011;67098;51.140;4.088;2023-02-24T13:56:56;17.73;;;8.45;;
32216;SDS011;67098;51.140;4.088;2023-02-24T14:02:27;16.00;;;7.63;;
32216;SDS011;67098;51.140;4.088;2023-02-24T14:04:55;12.43;;;7.03;;
32216;SDS011;67098;51.140;4.088;2023-02-24T14:07:25;14.73;;;7.55;;
32216;SDS011;67098;51.140;4.088;2023-02-24T14:09:57;12.23;;;8.05;;
32216;SDS011;67098;51.140;4.088;2023-02-24T14:12:40;15.98;;;8.38;;
32216;SDS011;67098;51.140;4.088;2023-02-24T14:15:14;12.15;;;7.60;;
32216;SDS011;67098;51.140;4.088;2023-02-24T14:17:52;12.80;;;8.23;;
32216;SDS011;67098;51.140;4.088;2023-02-24T14:20:20;15.80;;;8.68;;
32216;SDS011;67098;51.140;4.088;2023-02-24T14:22:48;14.43;;;8.27;;
32216;SDS011;67098;51.140;4.088;2023-02-24T14:25:20;14.23;;;8.82;;
32216;SDS011;67098;51.140;4.088;2023-02-24T14:27:48;16.35;;;9.07;;
32216;SDS011;67098;51.140;4.088;2023-02-24T14:30:35;16.70;;;9.50;;
32216;SDS011;67098;51.140;4.088;2023-02-24T14:33:03;20.25;;;9.77;;
32216;SDS011;67098;51.140;4.088;2023-02-24T14:35:38;16.55;;;9.82;;
32216;SDS011;67098;51.140;4.088;2023-02-24T14:40:55;17.77;;;10.73;;
32216;SDS011;67098;51.140;4.088;2023-02-24T14:43:21;19.15;;;10.27;;
32216;SDS011;67098;51.140;4.088;2023-02-24T14:45:48;19.55;;;9.75;;
32216;SDS011;67098;51.140;4.088;2023-02-24T14:51:04;23.23;;;10.63;;
32216;SDS011;67098;51.140;4.088;2023-02-24T14:53:35;21.02;;;10.63;;
32216;SDS011;67098;51.140;4.088;2023-02-24T14:56:07;22.00;;;10.20;;
32216;SDS011;67098;51.140;4.088;2023-02-24T14:58:37;21.15;;;10.60;;
32216;SDS011;67098;51.140;4.088;2023-02-24T15:01:22;24.35;;;11.40;;
32216;SDS011;67098;51.140;4.088;2023-02-24T15:03:59;27.10;;;10.77;;
32216;SDS011;67098;51.140;4.088;2023-02-24T15:06:36;20.13;;;9.57;;
32216;SDS011;67098;51.140;4.088;2023-02-24T15:09:15;21.90;;;10.10;;
32216;SDS011;67098;51.140;4.088;2023-02-24T15:11:49;20.25;;;10.20;;
32216;SDS011;67098;51.140;4.088;2023-02-24T15:14:22;21.27;;;10.00;;
32216;SDS011;67098;51.140;4.088;2023-02-24T15:17:00;26.80;;;10.00;;
32216;SDS011;67098;51.140;4.088;2023-02-24T15:19:39;23.80;;;8.85;;
32216;SDS011;67098;51.140;4.088;2023-02-24T15:24:53;27.80;;;8.25;;
32216;SDS011;67098;51.140;4.088;2023-02-24T15:27:22;25.17;;;8.02;;
32216;SDS011;67098;51.140;4.088;2023-02-24T15:29:57;23.75;;;9.85;;
32216;SDS011;67098;51.140;4.088;2023-02-24T15:32:29;26.00;;;9.00;;
32216;SDS011;67098;51.140;4.088;2023-02-24T15:34:56;23.08;;;8.48;;
32216;SDS011;67098;51.140;4.088;2023-02-24T15:37:24;25.23;;;8.98;;
32216;SDS011;67098;51.140;4.088;2023-02-24T15:40:10;21.33;;;7.45;;
32216;SDS011;67098;51.140;4.088;2023-02-24T15:42:48;24.63;;;8.40;;
32216;SDS011;67098;51.140;4.088;2023-02-24T15:45:29;25.70;;;7.95;;
32216;SDS011;67098;51.140;4.088;2023-02-24T15:47:58;24.73;;;7.28;;
32216;SDS011;67098;51.140;4.088;2023-02-24T15:50:25;20.20;;;7.03;;
32216;SDS011;67098;51.140;4.088;2023-02-24T15:52:51;22.42;;;7.32;;
32216;SDS011;67098;51.140;4.088;2023-02-24T15:55:18;20.88;;;7.03;;
32216;SDS011;67098;51.140;4.088;2023-02-24T15:57:45;30.50;;;7.30;;
32216;SDS011;67098;51.140;4.088;2023-02-24T16:00:15;22.75;;;7.03;;
32216;SDS011;67098;51.140;4.088;2023-02-24T16:02:42;32.63;;;7.35;;
32216;SDS011;67098;51.140;4.088;2023-02-24T16:05:11;30.02;;;6.70;;
32216;SDS011;67098;51.140;4.088;2023-02-24T16:07:37;25.75;;;6.28;;
32216;SDS011;67098;51.140;4.088;2023-02-24T16:10:04;27.73;;;6.40;;
32216;SDS011;67098;51.140;4.088;2023-02-24T16:12:34;32.42;;;6.65;;
32216;SDS011;67098;51.140;4.088;2023-02-24T16:15:04;27.92;;;5.13;;
32216;SDS011;67098;51.140;4.088;2023-02-24T16:20:04;41.20;;;6.88;;
32216;SDS011;67098;51.140;4.088;2023-02-24T16:22:41;24.58;;;4.88;;
32216;SDS011;67098;51.140;4.088;2023-02-24T16:25:07;30.60;;;5.50;;
32216;SDS011;67098;51.140;4.088;2023-02-24T16:27:34;34.60;;;5.18;;
32216;SDS011;67098;51.140;4.088;2023-02-24T16:30:00;21.95;;;3.90;;
32216;SDS011;67098;51.140;4.088;2023-02-24T16:32:25;27.67;;;4.45;;
32216;SDS011;67098;51.140;4.088;2023-02-24T16:34:51;21.10;;;4.07;;
32216;SDS011;67098;51.140;4.088;2023-02-24T16:37:22;32.92;;;4.45;;
32216;SDS011;67098;51.140;4.088;2023-02-24T16:39:53;30.83;;;4.10;;
32216;SDS011;67098;51.140;4.088;2023-02-24T16:42:19;26.75;;;4.60;;
32216;SDS011;67098;51.140;4.088;2023-02-24T16:44:47;28.67;;;3.58;;
32216;SDS011;67098;51.140;4.088;2023-02-24T16:47:17;20.60;;;3.17;;
32216;SDS011;67098;51.140;4.088;2023-02-24T16:49:45;21.70;;;3.13;;
32216;SDS011;67098;51.140;4.088;2023-02-24T16:52:11;20.00;;;3.33;;
32216;SDS011;67098;51.140;4.088;2023-02-24T16:54:38;16.23;;;2.17;;
32216;SDS011;67098;51.140;4.088;2023-02-24T16:57:04;6.88;;;1.83;;
32216;SDS011;67098;51.140;4.088;2023-02-24T16:59:29;14.15;;;2.30;;
32216;SDS011;67098;51.140;4.088;2023-02-24T17:01:55;11.27;;;1.73;;
32216;SDS011;67098;51.140;4.088;2023-02-24T17:04:23;16.63;;;3.67;;
32216;SDS011;67098;51.140;4.088;2023-02-24T17:06:49;16.02;;;2.90;;
32216;SDS011;67098;51.140;4.088;2023-02-24T17:09:15;12.20;;;2.45;;
32216;SDS011;67098;51.140;4.088;2023-02-24T17:11:41;10.77;;;2.22;;
32216;SDS011;67098;51.140;4.088;2023-02-24T17:14:17;11.40;;;2.08;;
32216;SDS011;67098;51.140;4.088;2023-02-24T17:16:44;17.38;;;3.20;;
32216;SDS011;67098;51.140;4.088;2023-02-24T17:19:10;20.38;;;3.22;;
32216;SDS011;67098;51.140;4.088;2023-02-24T17:21:38;17.30;;;2.90;;
32216;SDS011;67098;51.140;4.088;2023-02-24T17:24:06;25.85;;;3.55;;
32216;SDS011;67098;51.140;4.088;2023-02-24T17:26:34;16.73;;;4.95;;
32216;SDS011;67098;51.140;4.088;2023-02-24T17:29:00;14.57;;;3.22;;
32216;SDS011;67098;51.140;4.088;2023-02-24T17:31:25;16.73;;;3.75;;
32216;SDS011;67098;51.140;4.088;2023-02-24T17:33:55;15.73;;;2.65;;
32216;SDS011;67098;51.140;4.088;2023-02-24T17:36:21;13.02;;;2.78;;
32216;SDS011;67098;51.140;4.088;2023-02-24T17:38:46;14.95;;;2.20;;
32216;SDS011;67098;51.140;4.088;2023-02-24T17:41:12;17.73;;;3.22;;
32216;SDS011;67098;51.140;4.088;2023-02-24T17:43:38;9.45;;;2.40;;
32216;SDS011;67098;51.140;4.088;2023-02-24T17:46:03;15.30;;;2.90;;
32216;SDS011;67098;51.140;4.088;2023-02-24T17:48:29;15.45;;;3.78;;
32216;SDS011;67098;51.140;4.088;2023-02-24T17:50:55;16.73;;;3.50;;